createdAt,value
2024-01-16T00:00:05.963Z,3.60
2024-01-16T00:02:35.620Z,3.20
2024-01-16T00:05:04.068Z,4.53
2024-01-16T00:07:33.577Z,4.17
2024-01-16T00:10:01.895Z,3.20
2024-01-16T00:12:30.200Z,3.30
2024-01-16T00:14:58.532Z,3.23
2024-01-16T00:17:26.908Z,4.17
2024-01-16T00:19:56.589Z,3.47
2024-01-16T00:22:24.906Z,2.93
2024-01-16T00:24:53.194Z,3.90
2024-01-16T00:27:21.536Z,3.60
2024-01-16T00:29:51.100Z,3.20
2024-01-16T00:32:19.515Z,4.23
2024-01-16T00:34:47.951Z,3.03
2024-01-16T00:37:18.069Z,2.87
2024-01-16T00:39:46.404Z,4.60
2024-01-16T00:42:14.821Z,3.33
2024-01-16T00:44:43.184Z,2.73
2024-01-16T00:47:11.646Z,4.20
2024-01-16T00:49:39.969Z,2.80
2024-01-16T00:52:08.649Z,4.60
2024-01-16T00:54:38.274Z,2.87
2024-01-16T00:57:06.742Z,3.13
2024-01-16T00:59:35.080Z,3.70
2024-01-16T01:02:04.685Z,3.23
2024-01-16T01:04:35.510Z,2.97
2024-01-16T01:07:03.933Z,3.90
2024-01-16T01:09:32.812Z,2.30
2024-01-16T01:12:02.499Z,3.60
2024-01-16T01:14:32.172Z,2.63
2024-01-16T01:17:00.643Z,2.90
2024-01-16T01:19:29.035Z,3.50
2024-01-16T01:21:57.418Z,2.97
2024-01-16T01:24:25.777Z,3.70
2024-01-16T01:26:54.417Z,2.90
2024-01-16T01:29:24.122Z,2.80
2024-01-16T01:31:52.432Z,2.43
2024-01-16T01:34:21.021Z,6.67
2024-01-16T01:36:49.358Z,5.37
2024-01-16T01:39:17.709Z,3.03
2024-01-16T01:41:46.048Z,2.77
2024-01-16T01:44:17.313Z,3.00
2024-01-16T01:46:47.641Z,3.60
2024-01-16T01:49:16.797Z,3.80
2024-01-16T01:51:45.734Z,4.40
2024-01-16T01:54:14.596Z,3.20
2024-01-16T01:56:45.438Z,4.50
2024-01-16T01:59:14.224Z,2.90
2024-01-16T02:01:43.149Z,3.23
2024-01-16T02:04:13.449Z,2.90
2024-01-16T02:06:41.815Z,3.97
2024-01-16T02:09:10.151Z,2.83
2024-01-16T02:11:38.546Z,4.00
2024-01-16T02:14:06.933Z,3.00
2024-01-16T02:16:39.318Z,3.87
2024-01-16T02:19:08.080Z,3.37
2024-01-16T02:21:39.967Z,2.93
2024-01-16T02:24:10.505Z,3.90
2024-01-16T02:26:39.007Z,3.00
2024-01-16T02:29:07.498Z,3.27
2024-01-16T02:31:36.442Z,3.10
2024-01-16T02:34:05.540Z,3.63
2024-01-16T02:36:34.232Z,2.80
2024-01-16T02:39:02.564Z,3.03
2024-01-16T02:41:32.378Z,4.13
2024-01-16T02:44:00.733Z,4.10
2024-01-16T02:46:29.253Z,3.33
2024-01-16T02:48:57.715Z,3.87
2024-01-16T02:51:26.042Z,4.43
2024-01-16T02:53:54.372Z,3.90
2024-01-16T02:56:22.718Z,3.80
2024-01-16T02:58:52.361Z,7.60
2024-01-16T03:01:20.613Z,3.33
2024-01-16T03:03:48.943Z,3.10
2024-01-16T03:06:24.552Z,3.23
2024-01-16T03:08:53.221Z,3.30
2024-01-16T03:11:21.646Z,4.13
2024-01-16T03:13:50.829Z,3.43
2024-01-16T03:16:20.564Z,4.07
2024-01-16T03:18:49.256Z,3.80
2024-01-16T03:21:17.691Z,3.50
2024-01-16T03:23:46.129Z,4.93
2024-01-16T03:26:15.717Z,5.10
2024-01-16T03:28:44.304Z,4.20
2024-01-16T03:31:12.725Z,3.53
2024-01-16T03:33:43.922Z,4.07
2024-01-16T03:36:14.490Z,3.47
2024-01-16T03:38:43.367Z,3.30
2024-01-16T03:41:13.520Z,9.00
2024-01-16T03:43:41.939Z,4.50
2024-01-16T03:46:10.242Z,6.40
2024-01-16T03:48:38.672Z,3.83
2024-01-16T03:51:08.887Z,4.30
2024-01-16T03:53:37.279Z,5.53
2024-01-16T03:56:05.746Z,3.50
2024-01-16T03:58:34.114Z,4.37
2024-01-16T04:01:02.554Z,5.30
2024-01-16T04:03:30.986Z,4.40
2024-01-16T04:05:59.585Z,4.00
2024-01-16T04:08:29.573Z,6.37
2024-01-16T04:10:57.964Z,5.63
2024-01-16T04:13:26.294Z,3.30
2024-01-16T04:15:54.643Z,4.47
2024-01-16T04:18:23.165Z,3.40
2024-01-16T04:20:52.485Z,4.07
2024-01-16T04:23:20.956Z,5.30
2024-01-16T04:25:50.918Z,4.20
2024-01-16T04:28:19.523Z,6.20
2024-01-16T04:30:47.895Z,5.17
2024-01-16T04:33:16.440Z,6.17
2024-01-16T04:35:43.881Z,3.47
2024-01-16T04:38:12.207Z,3.27
2024-01-16T04:40:40.581Z,4.30
2024-01-16T04:43:10.425Z,3.80
2024-01-16T04:45:38.716Z,4.50
2024-01-16T04:48:07.519Z,3.60
2024-01-16T04:50:35.830Z,3.97
2024-01-16T04:53:04.697Z,3.83
2024-01-16T04:55:33.313Z,4.47
2024-01-16T04:58:01.913Z,4.70
2024-01-16T05:00:31.617Z,2.93
2024-01-16T05:03:00.752Z,3.17
2024-01-16T05:05:30.280Z,3.70
2024-01-16T05:07:58.893Z,4.03
2024-01-16T05:10:27.250Z,4.93
2024-01-16T05:12:55.512Z,6.20
2024-01-16T05:15:23.822Z,4.30
2024-01-16T05:17:54.519Z,4.40
2024-01-16T05:20:23.641Z,3.30
2024-01-16T05:22:51.889Z,3.97
2024-01-16T05:25:21.356Z,4.10
2024-01-16T05:27:50.507Z,3.63
2024-01-16T05:30:19.068Z,3.47
2024-01-16T05:32:47.679Z,4.53
2024-01-16T05:35:18.830Z,5.27
2024-01-16T05:37:47.376Z,3.40
2024-01-16T05:40:15.829Z,3.80
2024-01-16T05:42:44.177Z,3.00
2024-01-16T05:45:12.570Z,3.47
2024-01-16T05:47:41.081Z,3.20
2024-01-16T05:50:10.691Z,3.30
2024-01-16T05:52:42.815Z,5.50
2024-01-16T05:55:12.102Z,6.10
2024-01-16T05:57:40.547Z,3.60
2024-01-16T06:00:09.609Z,2.90
2024-01-16T06:02:38.143Z,3.00
2024-01-16T06:05:07.175Z,4.87
2024-01-16T06:07:35.519Z,4.03
2024-01-16T06:10:06.589Z,4.83
2024-01-16T06:12:35.185Z,5.03
2024-01-16T06:15:03.592Z,7.60
2024-01-16T06:17:32.208Z,4.20
2024-01-16T06:20:01.048Z,4.07
2024-01-16T06:22:29.373Z,4.63
2024-01-16T06:24:57.663Z,4.07
2024-01-16T06:27:27.364Z,4.10
2024-01-16T06:29:55.950Z,4.30
2024-01-16T06:32:24.491Z,5.53
2024-01-16T06:34:53.282Z,5.00
2024-01-16T06:37:21.718Z,6.63
2024-01-16T06:39:50.121Z,5.60
2024-01-16T06:42:18.541Z,5.50
2024-01-16T06:44:48.617Z,4.83
2024-01-16T06:47:17.350Z,5.70
2024-01-16T06:49:45.995Z,4.97
2024-01-16T06:52:14.466Z,5.70
2024-01-16T06:54:42.958Z,5.47
2024-01-16T06:57:11.450Z,6.00
2024-01-16T06:59:39.838Z,5.43
2024-01-16T07:02:10.072Z,3.40
2024-01-16T07:04:38.537Z,5.33
2024-01-16T07:07:07.075Z,4.40
2024-01-16T07:09:35.423Z,7.33
2024-01-16T07:12:04.908Z,4.73
2024-01-16T07:14:33.973Z,5.37
2024-01-16T07:17:02.393Z,3.87
2024-01-16T07:19:32.156Z,3.90
2024-01-16T07:22:00.647Z,4.30
2024-01-16T07:24:29.089Z,4.50
2024-01-16T07:26:57.645Z,4.70
2024-01-16T07:29:26.538Z,5.63
2024-01-16T07:31:55.069Z,6.77
2024-01-16T07:34:24.004Z,5.47
2024-01-16T07:36:53.867Z,4.73
2024-01-16T07:39:23.816Z,6.63
2024-01-16T07:41:52.279Z,5.00
2024-01-16T07:44:20.725Z,7.00
2024-01-16T07:46:49.163Z,7.10
2024-01-16T07:49:17.995Z,7.07
2024-01-16T07:51:46.348Z,5.67
2024-01-16T07:54:16.045Z,5.17
2024-01-16T07:56:44.435Z,8.47
2024-01-16T07:59:12.727Z,5.90
2024-01-16T08:01:41.021Z,4.80
2024-01-16T08:04:09.537Z,5.80
2024-01-16T08:06:38.205Z,5.50
2024-01-16T08:09:07.250Z,5.70
2024-01-16T08:11:37.879Z,6.83
2024-01-16T08:14:06.245Z,5.10
2024-01-16T08:16:34.863Z,3.83
2024-01-16T08:19:04.565Z,4.50
2024-01-16T08:21:33.257Z,5.80
2024-01-16T08:24:01.675Z,4.53
2024-01-16T08:26:30.138Z,11.13
2024-01-16T08:29:00.914Z,5.67
2024-01-16T08:31:29.393Z,4.90
2024-01-16T08:33:58.728Z,4.37
2024-01-16T08:36:27.277Z,5.50
2024-01-16T08:38:56.588Z,7.77
2024-01-16T08:41:25.310Z,5.37
2024-01-16T08:43:54.466Z,4.80
2024-01-16T08:46:24.230Z,4.60
2024-01-16T08:48:52.848Z,3.83
2024-01-16T08:51:21.357Z,4.17
2024-01-16T08:53:49.899Z,4.43
2024-01-16T08:56:18.787Z,5.80
2024-01-16T08:58:47.426Z,4.57
2024-01-16T09:01:16.024Z,6.53
2024-01-16T09:03:45.912Z,4.27
2024-01-16T09:06:14.383Z,4.60
2024-01-16T09:08:41.889Z,4.53
2024-01-16T09:11:10.673Z,4.73
2024-01-16T09:13:39.091Z,4.97
2024-01-16T09:16:07.580Z,4.70
2024-01-16T09:18:36.154Z,3.97
2024-01-16T09:21:06.496Z,4.40
2024-01-16T09:23:34.959Z,4.80
2024-01-16T09:26:03.390Z,4.67
2024-01-16T09:28:31.773Z,4.27
2024-01-16T09:31:00.510Z,4.47
2024-01-16T09:33:29.312Z,4.87
2024-01-16T09:35:57.799Z,4.07
2024-01-16T09:38:27.582Z,4.67
2024-01-16T09:40:59.486Z,3.37
2024-01-16T09:43:29.916Z,4.70
2024-01-16T09:46:01.713Z,3.53
2024-01-16T09:48:34.251Z,4.43
2024-01-16T09:51:02.981Z,4.73
2024-01-16T09:53:32.986Z,6.07
2024-01-16T09:56:05.159Z,4.17
2024-01-16T09:58:36.904Z,4.60
2024-01-16T10:01:05.878Z,4.93
2024-01-16T10:03:34.535Z,4.20
2024-01-16T10:06:04.910Z,4.93
2024-01-16T10:08:34.720Z,3.83
2024-01-16T10:11:03.140Z,4.63
2024-01-16T10:13:31.648Z,3.93
2024-01-16T10:16:00.402Z,3.77
2024-01-16T10:18:31.109Z,4.77
2024-01-16T10:21:00.037Z,4.23
2024-01-16T10:23:29.033Z,2.87
2024-01-16T10:26:11.728Z,3.70
2024-01-16T10:28:41.268Z,5.73
2024-01-16T10:31:10.603Z,6.73
2024-01-16T10:33:40.448Z,3.07
2024-01-16T10:36:12.977Z,3.70
2024-01-16T10:38:42.084Z,3.10
2024-01-16T10:41:15.292Z,4.30
2024-01-16T10:43:45.363Z,2.60
2024-01-16T10:46:14.383Z,4.10
2024-01-16T10:48:43.936Z,3.57
2024-01-16T10:51:13.699Z,3.30
2024-01-16T10:53:44.804Z,3.27
2024-01-16T10:56:16.812Z,3.20
2024-01-16T10:58:46.070Z,4.40
2024-01-16T11:01:15.933Z,2.83
2024-01-16T11:03:49.619Z,3.33
2024-01-16T11:06:18.831Z,3.30
2024-01-16T11:08:49.084Z,3.23
2024-01-16T11:11:19.596Z,3.00
2024-01-16T11:13:48.643Z,3.70
2024-01-16T11:16:17.130Z,2.77
2024-01-16T11:18:46.020Z,3.30
2024-01-16T11:21:18.063Z,3.37
2024-01-16T11:23:49.191Z,2.87
2024-01-16T11:26:34.716Z,3.03
2024-01-16T11:29:04.086Z,3.17
2024-01-16T11:31:33.164Z,2.70
2024-01-16T11:34:02.330Z,3.23
2024-01-16T11:36:55.485Z,3.40
2024-01-16T11:39:26.014Z,3.20
2024-01-16T11:41:56.765Z,4.30
2024-01-16T11:44:41.730Z,5.07
2024-01-16T11:47:10.296Z,3.67
2024-01-16T11:49:39.260Z,5.23
2024-01-16T11:52:07.876Z,2.40
2024-01-16T11:54:36.629Z,3.70
2024-01-16T11:57:35.102Z,4.20
2024-01-16T12:00:14.014Z,3.20
2024-01-16T12:02:50.113Z,4.80
2024-01-16T12:05:18.742Z,8.20
2024-01-16T12:07:55.197Z,4.93
2024-01-16T12:10:24.493Z,3.87
2024-01-16T12:12:53.515Z,4.00
2024-01-16T12:15:23.764Z,5.20
2024-01-16T12:17:59.617Z,3.40
2024-01-16T12:20:30.137Z,4.40
2024-01-16T12:22:59.621Z,2.80
2024-01-16T12:25:59.567Z,4.53
2024-01-16T12:28:31.172Z,3.40
2024-01-16T12:31:04.160Z,4.37
2024-01-16T12:33:33.059Z,2.80
2024-01-16T12:36:07.046Z,3.37
2024-01-16T12:38:36.670Z,3.13
2024-01-16T12:41:08.539Z,3.77
2024-01-16T12:43:37.911Z,5.97
2024-01-16T12:46:07.856Z,4.57
2024-01-16T12:48:36.350Z,4.53
2024-01-16T12:51:06.295Z,4.13
2024-01-16T12:53:38.305Z,3.20
2024-01-16T12:56:09.228Z,4.13
2024-01-16T12:58:38.140Z,2.47
2024-01-16T13:01:38.155Z,3.53
2024-01-16T13:04:08.855Z,2.50
2024-01-16T13:06:38.247Z,4.17
2024-01-16T13:09:11.196Z,4.10
2024-01-16T13:11:50.946Z,3.30
2024-01-16T13:14:19.488Z,4.00
2024-01-16T13:16:49.411Z,2.93
2024-01-16T13:19:19.416Z,4.73
2024-01-16T13:21:48.131Z,5.47
2024-01-16T13:24:18.612Z,3.20
2024-01-16T13:26:47.656Z,4.40
2024-01-16T13:29:16.798Z,3.00
2024-01-16T13:31:45.695Z,3.10
2024-01-16T13:34:18.836Z,3.90
2024-01-16T13:37:00.502Z,3.43
2024-01-16T13:39:39.494Z,6.13
2024-01-16T13:42:08.687Z,3.10
2024-01-16T13:44:37.285Z,4.57
2024-01-16T13:47:09.095Z,2.93
2024-01-16T13:49:42.661Z,3.40
2024-01-16T13:52:11.353Z,2.63
2024-01-16T13:54:41.418Z,3.80
2024-01-16T13:57:11.935Z,3.00
2024-01-16T13:59:42.256Z,4.00
2024-01-16T14:02:10.980Z,3.10
2024-01-16T14:04:39.579Z,3.80
2024-01-16T14:07:12.947Z,2.40
2024-01-16T14:09:43.125Z,4.03
2024-01-16T14:12:12.504Z,3.07
2024-01-16T14:14:43.019Z,2.80
2024-01-16T14:17:11.541Z,3.87
2024-01-16T14:19:40.391Z,3.53
2024-01-16T14:22:11.004Z,3.63
2024-01-16T14:24:39.567Z,3.60
2024-01-16T14:27:08.938Z,3.77
2024-01-16T14:29:41.227Z,5.90
2024-01-16T14:32:11.017Z,3.23
2024-01-16T14:34:39.503Z,3.27
2024-01-16T14:37:07.942Z,3.20
2024-01-16T14:39:38.027Z,2.67
2024-01-16T14:42:07.300Z,2.53
2024-01-16T14:44:36.459Z,4.10
2024-01-16T14:47:05.428Z,3.77
2024-01-16T14:49:35.662Z,4.43
2024-01-16T14:52:04.348Z,5.00
2024-01-16T14:54:32.866Z,4.77
2024-01-16T14:57:02.800Z,4.30
2024-01-16T14:59:31.236Z,3.60
2024-01-16T15:01:59.682Z,4.37
2024-01-16T15:04:28.315Z,3.73
2024-01-16T15:06:57.356Z,3.70
2024-01-16T15:09:25.814Z,4.50
2024-01-16T15:11:54.458Z,3.50
2024-01-16T15:14:24.385Z,5.07
2024-01-16T15:16:53.056Z,4.37
2024-01-16T15:19:21.741Z,3.83
2024-01-16T15:21:50.218Z,4.43
2024-01-16T15:24:23.128Z,4.57
2024-01-16T15:26:51.626Z,3.50
2024-01-16T15:29:20.242Z,3.70
2024-01-16T15:31:50.172Z,4.13
2024-01-16T15:34:18.840Z,7.40
2024-01-16T15:36:47.596Z,10.07
2024-01-16T15:39:17.340Z,14.00
2024-01-16T15:41:46.222Z,10.73
2024-01-16T15:44:15.365Z,9.13
2024-01-16T15:47:04.391Z,9.50
2024-01-16T15:49:33.527Z,5.80
2024-01-16T15:52:03.089Z,6.43
2024-01-16T15:54:33.142Z,4.17
2024-01-16T15:57:01.987Z,3.80
2024-01-16T15:59:30.584Z,4.67
2024-01-16T16:02:01.880Z,4.77
2024-01-16T16:04:33.506Z,5.73
2024-01-16T16:07:02.468Z,4.40
2024-01-16T16:09:30.992Z,5.80
2024-01-16T16:11:59.507Z,6.70
2024-01-16T16:14:32.111Z,5.00
2024-01-16T16:17:03.290Z,3.90
2024-01-16T16:19:33.808Z,5.07
2024-01-16T16:22:02.206Z,4.10
2024-01-16T16:24:31.926Z,5.77
2024-01-16T16:27:01.166Z,4.40
2024-01-16T16:29:29.599Z,4.90
2024-01-16T16:31:58.729Z,4.33
2024-01-16T16:34:27.048Z,5.43
2024-01-16T16:36:56.972Z,6.00
2024-01-16T16:39:25.346Z,10.10
2024-01-16T16:41:53.780Z,9.27
2024-01-16T16:44:22.374Z,8.70
2024-01-16T16:46:50.832Z,10.03
2024-01-16T16:49:19.456Z,9.60
2024-01-16T16:51:48.669Z,7.83
2024-01-16T16:54:18.624Z,9.37
2024-01-16T16:56:47.521Z,7.00
2024-01-16T16:59:16.010Z,8.83
2024-01-16T17:01:44.400Z,8.37
2024-01-16T17:04:12.967Z,9.77
2024-01-16T17:06:41.504Z,6.93
2024-01-16T17:09:13.143Z,11.43
2024-01-16T17:11:43.071Z,8.50
2024-01-16T17:14:11.666Z,7.87
2024-01-16T17:16:41.302Z,5.70
2024-01-16T17:19:11.659Z,5.27
2024-01-16T17:21:40.105Z,5.63
2024-01-16T17:24:08.967Z,5.10
2024-01-16T17:26:38.574Z,4.60
2024-01-16T17:29:08.423Z,4.53
2024-01-16T17:31:37.923Z,4.50
2024-01-16T17:34:07.335Z,5.80
2024-01-16T17:36:35.904Z,6.40
2024-01-16T17:39:04.892Z,11.40
2024-01-16T17:41:34.171Z,9.63
2024-01-16T17:44:02.623Z,6.07
2024-01-16T17:46:32.494Z,5.10
2024-01-16T17:49:01.156Z,5.10
2024-01-16T17:51:29.626Z,4.07
2024-01-16T17:53:58.096Z,4.23
2024-01-16T17:56:27.165Z,4.27
2024-01-16T17:58:56.264Z,4.20
2024-01-16T18:01:24.579Z,6.40
2024-01-16T18:03:58.090Z,4.00
2024-01-16T18:06:26.649Z,5.73
2024-01-16T18:08:55.174Z,3.87
2024-01-16T18:11:27.454Z,5.10
2024-01-16T18:13:56.125Z,3.20
2024-01-16T18:16:27.653Z,9.77
2024-01-16T18:18:57.608Z,4.20
2024-01-16T18:21:26.137Z,3.70
2024-01-16T18:23:54.611Z,3.93
2024-01-16T18:26:23.544Z,4.70
2024-01-16T18:28:55.417Z,6.03
2024-01-16T18:31:23.857Z,4.60
2024-01-16T18:33:52.389Z,3.87
2024-01-16T18:36:22.309Z,6.13
2024-01-16T18:38:51.297Z,4.33
2024-01-16T18:41:19.766Z,4.37
2024-01-16T18:43:48.964Z,5.03
2024-01-16T18:46:21.723Z,7.87
2024-01-16T18:48:51.094Z,5.27
2024-01-16T18:51:19.585Z,6.03
2024-01-16T18:53:50.886Z,5.67
2024-01-16T18:56:20.217Z,6.63
2024-01-16T18:58:48.771Z,6.87
2024-01-16T19:01:17.190Z,7.00
2024-01-16T19:03:45.708Z,5.30
2024-01-16T19:06:14.696Z,5.90
2024-01-16T19:08:44.239Z,6.10
2024-01-16T19:11:16.173Z,5.27
2024-01-16T19:13:45.436Z,7.70
2024-01-16T19:16:13.952Z,6.57
2024-01-16T19:18:43.872Z,4.27
2024-01-16T19:21:12.562Z,5.53
2024-01-16T19:23:41.001Z,4.03
2024-01-16T19:26:10.430Z,4.73
2024-01-16T19:28:40.227Z,7.43
2024-01-16T19:31:09.695Z,5.40
2024-01-16T19:33:38.233Z,4.83
2024-01-16T19:36:07.191Z,8.53
2024-01-16T19:38:37.090Z,4.70
2024-01-16T19:41:05.770Z,4.80
2024-01-16T19:43:34.312Z,5.27
2024-01-16T19:46:04.202Z,5.70
2024-01-16T19:48:35.995Z,7.37
2024-01-16T19:51:04.639Z,6.70
2024-01-16T19:53:33.236Z,8.00
2024-01-16T19:56:06.383Z,10.60
2024-01-16T19:58:34.924Z,12.83
2024-01-16T20:01:04.763Z,16.30
2024-01-16T20:03:34.298Z,15.77
2024-01-16T20:06:04.136Z,29.53
2024-01-16T20:08:32.649Z,25.00
2024-01-16T20:11:01.143Z,21.37
2024-01-16T20:13:29.517Z,36.20
2024-01-16T20:15:58.126Z,26.97
2024-01-16T20:18:28.188Z,26.50
2024-01-16T20:20:56.783Z,35.77
2024-01-16T20:23:25.411Z,66.53
2024-01-16T20:25:53.902Z,65.77
2024-01-16T20:28:22.941Z,41.20
2024-01-16T20:30:51.591Z,36.00
2024-01-16T20:33:20.074Z,19.80
2024-01-16T20:35:50.043Z,19.90
2024-01-16T20:38:18.477Z,18.37
2024-01-16T20:40:48.108Z,16.90
2024-01-16T20:43:16.923Z,13.47
2024-01-16T20:45:45.397Z,9.43
2024-01-16T20:48:13.815Z,9.17
2024-01-16T20:50:42.706Z,7.47
2024-01-16T20:53:12.496Z,6.93
2024-01-16T20:55:41.052Z,6.53
2024-01-16T20:58:10.120Z,8.13
2024-01-16T21:00:38.675Z,6.53
2024-01-16T21:03:11.469Z,9.03
2024-01-16T21:05:40.744Z,7.60
2024-01-16T21:08:12.411Z,7.00
2024-01-16T21:10:42.571Z,7.17
2024-01-16T21:13:11.759Z,8.30
2024-01-16T21:15:40.142Z,11.93
2024-01-16T21:18:09.178Z,6.93
2024-01-16T21:20:37.845Z,6.70
2024-01-16T21:23:07.170Z,6.10
2024-01-16T21:25:35.781Z,6.20
2024-01-16T21:28:05.821Z,7.03
2024-01-16T21:30:34.283Z,7.20
2024-01-16T21:33:03.715Z,7.10
2024-01-16T21:35:32.227Z,8.37
2024-01-16T21:38:01.134Z,9.70
2024-01-16T21:40:29.458Z,7.43
2024-01-16T21:42:57.862Z,7.93
2024-01-16T21:45:27.659Z,8.83
2024-01-16T21:47:56.197Z,7.43
2024-01-16T21:50:33.802Z,7.10
2024-01-16T21:53:06.510Z,7.37
2024-01-16T21:55:34.942Z,7.67
2024-01-16T21:58:04.023Z,6.43
2024-01-16T22:00:33.809Z,7.50
2024-01-16T22:03:02.364Z,9.60
2024-01-16T22:05:30.954Z,8.47
2024-01-16T22:07:59.461Z,8.23
2024-01-16T22:10:28.549Z,7.13
2024-01-16T22:12:56.979Z,10.17
2024-01-16T22:15:25.500Z,10.50
2024-01-16T22:17:56.612Z,6.80
2024-01-16T22:20:25.427Z,7.40
2024-01-16T22:22:53.866Z,7.93
2024-01-16T22:25:22.653Z,8.30
2024-01-16T22:27:51.149Z,6.47
2024-01-16T22:30:19.870Z,7.23
2024-01-16T22:32:48.496Z,7.07
2024-01-16T22:35:18.318Z,6.53
2024-01-16T22:37:49.786Z,8.07
2024-01-16T22:40:18.543Z,13.67
2024-01-16T22:42:46.972Z,23.80
2024-01-16T22:45:15.764Z,53.13
2024-01-16T22:47:44.655Z,49.07
2024-01-16T22:50:13.646Z,57.97
2024-01-16T22:52:43.641Z,54.60
2024-01-16T22:55:12.248Z,53.17
2024-01-16T22:57:40.693Z,63.33
2024-01-16T23:00:20.259Z,61.83
2024-01-16T23:02:49.676Z,48.87
2024-01-16T23:05:18.748Z,29.53
2024-01-16T23:07:48.597Z,29.20
2024-01-16T23:10:18.641Z,21.20
2024-01-16T23:12:47.170Z,15.33
2024-01-16T23:15:16.713Z,11.90
2024-01-16T23:17:45.406Z,13.63
2024-01-16T23:20:17.561Z,11.37
2024-01-16T23:22:46.249Z,10.80
2024-01-16T23:25:17.129Z,11.17
2024-01-16T23:27:45.864Z,7.23
2024-01-16T23:30:14.512Z,7.33
2024-01-16T23:32:43.325Z,7.07
2024-01-16T23:35:11.812Z,6.27
2024-01-16T23:37:41.804Z,5.80
2024-01-16T23:40:13.673Z,6.77
2024-01-16T23:42:45.686Z,8.80
2024-01-16T23:45:23.824Z,6.00
2024-01-16T23:47:56.738Z,8.57
2024-01-16T23:50:25.410Z,6.53
2024-01-16T23:52:54.231Z,6.87
2024-01-16T23:55:23.857Z,6.73
2024-01-16T23:57:55.596Z,6.30
